createdAt,value
2023-01-20T00:01:47.786Z,0.30
2023-01-20T00:04:19.201Z,0.30
2023-01-20T00:06:47.714Z,0.30
2023-01-20T00:09:17.545Z,0.30
2023-01-20T00:11:45.974Z,0.30
2023-01-20T00:14:14.181Z,0.30
2023-01-20T00:16:42.131Z,0.30
2023-01-20T00:19:14.666Z,0.30
2023-01-20T00:21:43.094Z,0.30
2023-01-20T00:24:10.820Z,0.30
2023-01-20T00:26:38.539Z,0.30
2023-01-20T00:29:06.620Z,0.30
2023-01-20T00:31:36.207Z,0.30
2023-01-20T00:34:04.112Z,0.30
2023-01-20T00:36:32.787Z,0.40
2023-01-20T00:39:02.791Z,0.40
2023-01-20T00:41:30.757Z,0.30
2023-01-20T00:43:58.477Z,0.30
2023-01-20T00:46:26.592Z,0.30
2023-01-20T00:48:54.302Z,0.30
2023-01-20T00:51:22.122Z,0.30
2023-01-20T00:53:49.851Z,0.30
2023-01-20T00:56:17.570Z,0.30
2023-01-20T00:58:45.413Z,0.20
2023-01-20T01:01:13.840Z,0.20
2023-01-20T01:03:41.574Z,0.30
2023-01-20T01:06:16.151Z,0.30
2023-01-20T01:08:44.828Z,0.40
2023-01-20T01:11:13.704Z,0.40
2023-01-20T01:13:41.946Z,0.50
2023-01-20T01:16:15.250Z,0.50
2023-01-20T01:18:43.760Z,0.50
2023-01-20T01:21:15.187Z,0.50
2023-01-20T01:23:44.001Z,0.50
2023-01-20T01:26:12.204Z,0.40
2023-01-20T01:28:40.292Z,0.40
2023-01-20T01:31:09.174Z,0.40
2023-01-20T01:33:37.286Z,0.40
2023-01-20T01:36:06.199Z,0.40
2023-01-20T01:38:34.303Z,0.40
2023-01-20T01:41:02.257Z,0.40
2023-01-20T01:43:34.294Z,0.40
2023-01-20T01:46:03.507Z,0.30
2023-01-20T01:48:45.472Z,0.30
2023-01-20T01:51:21.709Z,0.30
2023-01-20T01:54:05.263Z,0.40
2023-01-20T01:56:33.945Z,0.50
2023-01-20T01:59:03.353Z,0.50
2023-01-20T02:01:36.661Z,0.50
2023-01-20T02:04:14.390Z,0.50
2023-01-20T02:06:47.035Z,0.60
2023-01-20T02:09:14.997Z,0.60
2023-01-20T02:11:53.044Z,0.70
2023-01-20T02:14:27.248Z,0.70
2023-01-20T02:17:32.897Z,0.80
2023-01-20T02:20:34.699Z,0.80
2023-01-20T02:23:42.133Z,0.70
2023-01-20T02:27:11.298Z,0.70
2023-01-20T02:30:11.296Z,0.60
2023-01-20T02:33:13.097Z,0.60
2023-01-20T02:35:51.625Z,0.60
2023-01-20T02:39:03.143Z,0.50
2023-01-20T02:42:10.106Z,0.40
2023-01-20T02:44:50.791Z,0.40
2023-01-20T02:47:28.591Z,0.30
2023-01-20T02:50:09.527Z,0.30
2023-01-20T02:52:43.476Z,0.30
2023-01-20T02:55:16.992Z,0.40
2023-01-20T02:57:54.998Z,0.30
2023-01-20T03:00:33.187Z,0.30
2023-01-20T03:03:05.941Z,0.30
2023-01-20T03:05:40.531Z,0.30
2023-01-20T03:08:11.933Z,0.40
2023-01-20T03:10:42.414Z,0.40
2023-01-20T03:13:31.270Z,0.30
2023-01-20T03:16:07.860Z,0.30
2023-01-20T03:18:38.223Z,0.30
2023-01-20T03:21:08.707Z,0.30
2023-01-20T03:23:41.714Z,0.20
2023-01-20T03:26:13.027Z,0.20
2023-01-20T03:28:44.596Z,0.20
2023-01-20T03:31:35.008Z,0.20
2023-01-20T03:34:11.045Z,0.10
2023-01-20T03:36:41.985Z,0.00
2023-01-20T03:39:10.286Z,-0.10
2023-01-20T03:42:02.728Z,0.00
2023-01-20T03:45:23.610Z,0.00
2023-01-20T03:48:18.817Z,0.20
2023-01-20T03:51:03.822Z,0.20
2023-01-20T03:54:01.565Z,0.20
2023-01-20T03:57:04.122Z,0.30
2023-01-20T03:59:36.700Z,0.30
2023-01-20T04:02:07.915Z,0.20
2023-01-20T04:04:39.705Z,0.10
2023-01-20T04:07:12.486Z,0.00
2023-01-20T04:09:47.763Z,0.00
2023-01-20T04:12:15.484Z,-0.10
2023-01-20T04:14:43.321Z,-0.10
2023-01-20T04:17:11.757Z,-0.10
2023-01-20T04:19:39.479Z,-0.20
2023-01-20T04:22:33.971Z,-0.20
2023-01-20T04:25:31.096Z,-0.20
2023-01-20T04:27:59.181Z,-0.20
2023-01-20T04:30:26.934Z,-0.20
2023-01-20T04:32:54.612Z,-0.30
2023-01-20T04:35:22.579Z,-0.40
2023-01-20T04:37:50.296Z,-0.30
2023-01-20T04:40:18.377Z,-0.30
2023-01-20T04:42:46.101Z,-0.20
2023-01-20T04:45:17.875Z,-0.20
2023-01-20T04:47:45.762Z,-0.10
2023-01-20T04:50:15.153Z,-0.10
2023-01-20T04:52:43.357Z,0.00
2023-01-20T04:55:11.806Z,-0.10
2023-01-20T04:57:40.240Z,-0.20
2023-01-20T05:00:09.043Z,-0.30
2023-01-20T05:02:36.780Z,-0.20
2023-01-20T05:05:04.963Z,-0.20
2023-01-20T05:07:34.725Z,-0.30
2023-01-20T05:10:02.578Z,-0.30
2023-01-20T05:12:30.415Z,-0.30
2023-01-20T05:14:58.131Z,-0.20
2023-01-20T05:17:25.860Z,-0.20
2023-01-20T05:19:53.575Z,-0.10
2023-01-20T05:22:21.297Z,-0.10
2023-01-20T05:24:49.042Z,-0.20
2023-01-20T05:27:16.745Z,-0.30
2023-01-20T05:29:44.473Z,-0.30
2023-01-20T05:32:12.190Z,-0.30
2023-01-20T05:34:39.910Z,-0.40
2023-01-20T05:37:07.637Z,-0.50
2023-01-20T05:39:35.353Z,-0.60
2023-01-20T05:42:03.676Z,-0.50
2023-01-20T05:44:31.398Z,-0.50
2023-01-20T05:46:59.122Z,-0.60
2023-01-20T05:49:26.846Z,-0.50
2023-01-20T05:51:54.581Z,-0.50
2023-01-20T05:54:22.306Z,-0.50
2023-01-20T05:56:50.022Z,-0.60
2023-01-20T05:59:18.098Z,-0.50
2023-01-20T06:01:45.942Z,-0.50
2023-01-20T06:04:13.659Z,-0.50
2023-01-20T06:06:41.502Z,-0.50
2023-01-20T06:09:11.024Z,-0.40
2023-01-20T06:11:38.767Z,-0.40
2023-01-20T06:14:06.470Z,-0.40
2023-01-20T06:16:34.308Z,-0.40
2023-01-20T06:19:02.153Z,-0.30
2023-01-20T06:21:29.881Z,-0.30
2023-01-20T06:23:57.605Z,-0.30
2023-01-20T06:26:25.318Z,-0.40
2023-01-20T06:28:53.043Z,-0.50
2023-01-20T06:31:20.831Z,-0.50
2023-01-20T06:33:48.616Z,-0.50
2023-01-20T06:36:17.749Z,-0.50
2023-01-20T06:38:50.711Z,-0.50
2023-01-20T06:41:20.320Z,-0.50
2023-01-20T06:43:50.177Z,-0.50
2023-01-20T06:46:18.062Z,-0.40
2023-01-20T06:48:46.348Z,-0.50
2023-01-20T06:51:18.868Z,-0.50
2023-01-20T06:53:47.672Z,-0.50
2023-01-20T06:56:16.115Z,-0.50
2023-01-20T06:58:44.817Z,-0.50
2023-01-20T07:01:21.023Z,-0.60
2023-01-20T07:03:48.759Z,-0.60
2023-01-20T07:06:39.542Z,-0.50
2023-01-20T07:09:10.971Z,-0.50
2023-01-20T07:11:39.659Z,-0.50
2023-01-20T07:14:08.445Z,-0.50
2023-01-20T07:16:36.970Z,-0.50
2023-01-20T07:19:04.967Z,-0.50
2023-01-20T07:21:32.707Z,-0.50
2023-01-20T07:24:01.975Z,-0.50
2023-01-20T07:26:30.178Z,-0.50
2023-01-20T07:29:01.022Z,-0.50
2023-01-20T07:31:31.599Z,-0.50
2023-01-20T07:34:00.196Z,-0.70
2023-01-20T07:36:28.265Z,-0.70
2023-01-20T07:38:56.109Z,-0.70
2023-01-20T07:41:23.873Z,-0.80
2023-01-20T07:43:53.238Z,-0.80
2023-01-20T07:46:21.689Z,-0.70
2023-01-20T07:48:49.537Z,-0.60
2023-01-20T07:51:18.081Z,-0.50
2023-01-20T07:53:49.762Z,-0.50
2023-01-20T07:56:26.730Z,-0.50
2023-01-20T07:58:55.889Z,-0.50
2023-01-20T08:01:30.669Z,-0.50
2023-01-20T08:04:03.095Z,-0.40
2023-01-20T08:06:31.295Z,-0.40
2023-01-20T08:09:03.225Z,-0.40
2023-01-20T08:11:32.340Z,-0.40
2023-01-20T08:14:00.109Z,-0.40
2023-01-20T08:16:27.840Z,-0.40
2023-01-20T08:18:55.823Z,-0.40
2023-01-20T08:21:27.951Z,-0.40
2023-01-20T08:23:57.263Z,-0.50
2023-01-20T08:26:27.374Z,-0.50
2023-01-20T08:29:00.964Z,-0.50
2023-01-20T08:31:28.743Z,-0.50
2023-01-20T08:33:57.376Z,-0.50
2023-01-20T08:36:30.604Z,-0.40
2023-01-20T08:39:02.566Z,-0.50
2023-01-20T08:41:36.127Z,-0.50
2023-01-20T08:44:08.068Z,-0.50
2023-01-20T08:46:39.849Z,-0.50
2023-01-20T08:49:17.656Z,-0.50
2023-01-20T08:51:45.860Z,-0.40
2023-01-20T08:54:15.152Z,-0.40
2023-01-20T08:56:43.472Z,-0.40
2023-01-20T08:59:11.186Z,-0.30
2023-01-20T09:01:39.076Z,-0.30
2023-01-20T09:04:07.781Z,-0.20
2023-01-20T09:06:53.797Z,-0.20
2023-01-20T09:09:22.731Z,-0.10
2023-01-20T09:11:53.453Z,-0.10
2023-01-20T09:14:23.919Z,0.00
2023-01-20T09:16:51.885Z,0.00
2023-01-20T09:19:19.737Z,0.10
2023-01-20T09:21:47.567Z,0.10
2023-01-20T09:24:15.654Z,0.10
2023-01-20T09:26:43.374Z,0.10
2023-01-20T09:29:14.110Z,0.20
2023-01-20T09:31:59.409Z,0.20
2023-01-20T09:34:29.494Z,0.30
2023-01-20T09:37:22.868Z,0.30
2023-01-20T09:40:09.066Z,0.30
2023-01-20T09:43:03.550Z,0.30
2023-01-20T09:46:10.217Z,0.40
2023-01-20T09:49:23.235Z,0.40
2023-01-20T09:52:44.368Z,0.40
2023-01-20T09:55:24.803Z,0.50
2023-01-20T09:58:31.535Z,0.50
2023-01-20T10:01:30.684Z,0.60
2023-01-20T10:04:12.218Z,0.60
2023-01-20T10:07:10.171Z,0.70
2023-01-20T10:09:54.691Z,0.70
2023-01-20T10:12:33.573Z,0.70
2023-01-20T10:15:16.783Z,0.70
2023-01-20T10:18:04.668Z,0.80
2023-01-20T10:20:58.662Z,0.80
2023-01-20T10:24:02.647Z,0.80
2023-01-20T10:26:44.747Z,0.80
2023-01-20T10:29:32.991Z,0.80
2023-01-20T10:32:05.996Z,0.80
2023-01-20T10:34:45.609Z,0.80
2023-01-20T10:37:15.408Z,0.80
2023-01-20T10:40:07.321Z,0.80
2023-01-20T10:42:35.163Z,0.80
2023-01-20T10:45:03.020Z,0.80
2023-01-20T10:48:04.088Z,0.80
2023-01-20T10:50:47.776Z,0.90
2023-01-20T10:53:44.779Z,0.90
2023-01-20T10:56:53.543Z,0.90
2023-01-20T10:59:31.948Z,0.90
2023-01-20T11:02:28.774Z,0.80
2023-01-20T11:05:02.185Z,0.80
2023-01-20T11:07:33.274Z,0.80
2023-01-20T11:10:26.928Z,0.90
2023-01-20T11:13:00.396Z,1.00
2023-01-20T11:15:43.244Z,1.00
2023-01-20T11:18:16.868Z,1.00
2023-01-20T11:20:52.491Z,1.00
2023-01-20T11:23:36.649Z,1.00
2023-01-20T11:26:22.493Z,1.00
2023-01-20T11:29:23.575Z,1.10
2023-01-20T11:31:55.446Z,1.20
2023-01-20T11:34:34.013Z,1.20
2023-01-20T11:37:21.898Z,1.20
2023-01-20T11:39:49.517Z,1.30
2023-01-20T11:42:42.181Z,1.30
2023-01-20T11:45:34.993Z,1.30
2023-01-20T11:48:15.973Z,1.40
2023-01-20T11:50:57.562Z,1.40
2023-01-20T11:53:26.501Z,1.40
2023-01-20T11:56:03.073Z,1.40
2023-01-20T11:58:52.754Z,1.50
2023-01-20T12:01:27.678Z,1.60
2023-01-20T12:04:24.249Z,1.70
2023-01-20T12:07:27.239Z,1.70
2023-01-20T12:10:06.097Z,1.70
2023-01-20T12:12:53.254Z,1.80
2023-01-20T12:15:28.049Z,1.80
2023-01-20T12:18:19.063Z,1.90
2023-01-20T12:20:57.730Z,1.80
2023-01-20T12:23:56.380Z,1.80
2023-01-20T12:26:25.185Z,1.90
2023-01-20T12:29:17.154Z,1.90
2023-01-20T12:31:49.034Z,2.00
2023-01-20T12:34:26.395Z,2.00
2023-01-20T12:37:16.800Z,2.00
2023-01-20T12:40:11.521Z,1.90
2023-01-20T12:43:11.528Z,1.90
2023-01-20T12:46:11.802Z,1.90
2023-01-20T12:49:17.291Z,2.00
2023-01-20T12:52:15.168Z,2.10
2023-01-20T12:54:54.017Z,2.20
2023-01-20T12:57:48.615Z,2.30
2023-01-20T13:00:52.488Z,2.40
2023-01-20T13:03:40.494Z,2.40
2023-01-20T13:06:28.608Z,2.40
2023-01-20T13:09:21.035Z,2.40
2023-01-20T13:12:13.348Z,2.40
2023-01-20T13:14:54.630Z,2.40
2023-01-20T13:17:40.595Z,2.30
2023-01-20T13:20:25.355Z,2.30
2023-01-20T13:22:55.357Z,2.40
2023-01-20T13:25:24.663Z,2.40
2023-01-20T13:27:54.443Z,2.40
2023-01-20T13:30:40.326Z,2.30
2023-01-20T13:33:38.955Z,2.30
2023-01-20T13:36:24.535Z,2.10
2023-01-20T13:39:40.586Z,2.00
2023-01-20T13:42:37.138Z,2.00
2023-01-20T13:45:14.261Z,2.00
2023-01-20T13:48:01.388Z,2.00
2023-01-20T13:50:38.466Z,2.00
2023-01-20T13:53:15.088Z,2.00
2023-01-20T13:55:45.451Z,2.10
2023-01-20T13:58:31.510Z,2.20
2023-01-20T14:01:08.845Z,2.30
2023-01-20T14:03:38.964Z,2.50
2023-01-20T14:06:14.493Z,2.60
2023-01-20T14:08:48.567Z,2.70
2023-01-20T14:11:17.121Z,2.80
2023-01-20T14:14:05.764Z,3.00
2023-01-20T14:16:36.256Z,3.00
2023-01-20T14:19:32.671Z,3.10
2023-01-20T14:22:04.068Z,3.20
2023-01-20T14:24:34.776Z,3.20
2023-01-20T14:27:08.145Z,3.30
2023-01-20T14:29:35.987Z,3.30
2023-01-20T14:32:26.153Z,3.30
2023-01-20T14:34:54.838Z,3.40
2023-01-20T14:37:37.923Z,3.40
2023-01-20T14:40:26.873Z,3.50
2023-01-20T14:43:00.367Z,3.60
2023-01-20T14:45:32.403Z,3.50
2023-01-20T14:48:02.661Z,3.40
2023-01-20T14:50:30.759Z,3.30
2023-01-20T14:52:58.567Z,3.30
2023-01-20T14:55:43.213Z,3.20
2023-01-20T14:58:18.608Z,3.20
2023-01-20T15:00:53.532Z,3.20
2023-01-20T15:03:30.855Z,3.20
2023-01-20T15:06:22.460Z,3.20
2023-01-20T15:09:05.528Z,3.20
2023-01-20T15:11:34.359Z,3.20
2023-01-20T15:14:02.072Z,3.20
2023-01-20T15:16:49.122Z,3.20
2023-01-20T15:19:19.905Z,3.10
2023-01-20T15:21:56.502Z,3.00
2023-01-20T15:24:32.323Z,2.90
2023-01-20T15:27:01.840Z,2.80
2023-01-20T15:29:33.886Z,2.80
2023-01-20T15:32:11.218Z,2.70
2023-01-20T15:34:39.052Z,2.60
2023-01-20T15:37:18.812Z,2.60
2023-01-20T15:39:47.597Z,2.50
2023-01-20T15:42:15.912Z,2.40
2023-01-20T15:44:43.625Z,2.30
2023-01-20T15:47:29.129Z,2.30
2023-01-20T15:49:57.897Z,2.30
2023-01-20T15:52:26.023Z,2.20
2023-01-20T15:54:53.709Z,2.20
2023-01-20T15:57:21.430Z,2.10
2023-01-20T15:59:51.335Z,2.00
2023-01-20T16:02:23.674Z,2.00
2023-01-20T16:04:51.459Z,1.90
2023-01-20T16:07:20.510Z,1.80
2023-01-20T16:09:48.929Z,1.80
2023-01-20T16:12:18.679Z,1.70
2023-01-20T16:14:46.523Z,1.60
2023-01-20T16:17:18.090Z,1.50
2023-01-20T16:19:45.813Z,1.40
2023-01-20T16:22:14.493Z,1.30
2023-01-20T16:24:42.477Z,1.20
2023-01-20T16:27:20.735Z,1.20
2023-01-20T16:29:49.302Z,1.10
2023-01-20T16:32:21.793Z,1.10
2023-01-20T16:34:50.143Z,1.10
2023-01-20T16:37:18.228Z,1.00
2023-01-20T16:39:46.190Z,0.90
2023-01-20T16:42:15.125Z,0.90
2023-01-20T16:44:42.951Z,0.90
2023-01-20T16:47:10.679Z,0.80
2023-01-20T16:49:38.999Z,0.70
2023-01-20T16:52:06.841Z,0.70
2023-01-20T16:54:34.567Z,0.60
2023-01-20T16:57:02.409Z,0.60
2023-01-20T16:59:30.367Z,0.60
2023-01-20T17:01:58.242Z,0.50
2023-01-20T17:04:25.936Z,0.60
2023-01-20T17:06:53.777Z,0.60
2023-01-20T17:09:21.616Z,0.50
2023-01-20T17:11:49.337Z,0.50
2023-01-20T17:14:17.178Z,0.50
2023-01-20T17:16:44.941Z,0.40
2023-01-20T17:19:13.168Z,0.50
2023-01-20T17:21:41.016Z,0.40
2023-01-20T17:24:11.079Z,0.50
2023-01-20T17:26:38.793Z,0.50
2023-01-20T17:29:07.160Z,0.60
2023-01-20T17:31:36.870Z,0.60
2023-01-20T17:34:06.404Z,0.50
2023-01-20T17:36:35.007Z,0.60
2023-01-20T17:39:05.206Z,0.50
2023-01-20T17:41:34.275Z,0.50
2023-01-20T17:44:04.051Z,0.40
2023-01-20T17:46:32.705Z,0.40
2023-01-20T17:49:01.969Z,0.30
2023-01-20T17:51:30.687Z,0.30
2023-01-20T17:54:01.229Z,0.40
2023-01-20T17:56:31.756Z,0.30
2023-01-20T17:58:59.622Z,0.40
2023-01-20T18:01:34.804Z,0.40
2023-01-20T18:04:05.112Z,0.30
2023-01-20T18:06:36.445Z,0.40
2023-01-20T18:09:08.119Z,0.40
2023-01-20T18:11:37.285Z,0.40
2023-01-20T18:14:06.803Z,0.50
2023-01-20T18:16:38.646Z,0.50
2023-01-20T18:19:07.057Z,0.50
2023-01-20T18:21:37.530Z,0.60
2023-01-20T18:24:07.650Z,0.60
2023-01-20T18:26:38.017Z,0.60
2023-01-20T18:29:16.586Z,0.70
2023-01-20T18:31:47.888Z,0.70
2023-01-20T18:34:15.956Z,0.70
2023-01-20T18:36:46.211Z,0.70
2023-01-20T18:39:23.271Z,0.70
2023-01-20T18:41:52.064Z,0.70
2023-01-20T18:44:20.749Z,0.60
2023-01-20T18:46:48.708Z,0.60
2023-01-20T18:49:17.513Z,0.60
2023-01-20T18:51:45.484Z,0.70
2023-01-20T18:54:17.559Z,0.70
2023-01-20T18:56:45.605Z,0.70
2023-01-20T18:59:14.288Z,0.70
2023-01-20T19:01:43.009Z,0.70
2023-01-20T19:04:12.497Z,0.70
2023-01-20T19:06:44.082Z,0.70
2023-01-20T19:09:12.770Z,0.60
2023-01-20T19:11:42.045Z,0.60
2023-01-20T19:14:14.421Z,0.60
2023-01-20T19:16:45.266Z,0.60
2023-01-20T19:19:13.746Z,0.70
2023-01-20T19:21:42.272Z,0.80
2023-01-20T19:24:17.665Z,0.80
2023-01-20T19:26:46.105Z,0.80
2023-01-20T19:29:17.087Z,0.80
2023-01-20T19:31:44.998Z,0.90
2023-01-20T19:34:13.118Z,0.90
2023-01-20T19:36:40.955Z,1.00
2023-01-20T19:39:08.701Z,1.00
2023-01-20T19:41:36.620Z,1.00
2023-01-20T19:44:06.716Z,1.00
2023-01-20T19:46:38.920Z,1.00
2023-01-20T19:49:07.399Z,1.00
2023-01-20T19:51:36.543Z,1.00
2023-01-20T19:54:05.578Z,1.10
2023-01-20T19:56:35.576Z,1.10
2023-01-20T19:59:05.987Z,1.10
2023-01-20T20:01:37.103Z,1.10
2023-01-20T20:04:12.930Z,1.10
2023-01-20T20:06:45.658Z,1.10
2023-01-20T20:09:23.505Z,1.10
2023-01-20T20:11:51.311Z,1.10
2023-01-20T20:14:22.052Z,1.10
2023-01-20T20:16:50.722Z,1.10
2023-01-20T20:19:19.672Z,1.10
2023-01-20T20:21:47.378Z,1.10
2023-01-20T20:24:18.078Z,1.10
2023-01-20T20:26:46.543Z,1.00
2023-01-20T20:29:18.588Z,0.90
2023-01-20T20:31:46.968Z,0.80
2023-01-20T20:34:18.613Z,0.70
2023-01-20T20:36:46.536Z,0.60
2023-01-20T20:39:18.120Z,0.50
2023-01-20T20:41:46.671Z,0.50
2023-01-20T20:44:14.636Z,0.30
2023-01-20T20:46:43.619Z,0.30
2023-01-20T20:49:15.766Z,0.30
2023-01-20T20:51:44.042Z,0.30
2023-01-20T20:54:14.028Z,0.40
2023-01-20T20:56:41.760Z,0.40
2023-01-20T20:59:09.955Z,0.40
2023-01-20T21:01:37.821Z,0.50
2023-01-20T21:04:05.901Z,0.40
2023-01-20T21:06:34.211Z,0.40
2023-01-20T21:09:01.932Z,0.40
2023-01-20T21:11:30.023Z,0.40
2023-01-20T21:13:57.980Z,0.30
2023-01-20T21:16:27.595Z,0.40
2023-01-20T21:18:56.672Z,0.40
2023-01-20T21:21:25.240Z,0.40
2023-01-20T21:23:58.591Z,0.40
2023-01-20T21:26:30.527Z,0.50
2023-01-20T21:29:01.995Z,0.50
2023-01-20T21:31:31.367Z,0.40
2023-01-20T21:34:00.567Z,0.40
2023-01-20T21:36:54.032Z,0.30
2023-01-20T21:39:21.781Z,0.20
2023-01-20T21:41:49.482Z,0.00
2023-01-20T21:44:29.583Z,0.00
2023-01-20T21:46:59.709Z,0.00
2023-01-20T21:49:46.615Z,-0.10
2023-01-20T21:52:35.938Z,0.00
2023-01-20T21:55:05.572Z,0.00
2023-01-20T21:57:33.547Z,-0.10
2023-01-20T22:00:04.256Z,-0.10
2023-01-20T22:02:41.219Z,0.00
2023-01-20T22:05:09.298Z,0.00
2023-01-20T22:07:37.864Z,0.00
2023-01-20T22:10:06.190Z,-0.10
2023-01-20T22:12:35.515Z,-0.10
2023-01-20T22:15:04.153Z,-0.20
2023-01-20T22:17:32.500Z,-0.20
2023-01-20T22:20:00.197Z,-0.30
2023-01-20T22:22:28.279Z,-0.30
2023-01-20T22:24:55.999Z,-0.40
2023-01-20T22:27:23.721Z,-0.30
2023-01-20T22:29:51.443Z,-0.30
2023-01-20T22:32:19.167Z,-0.30
2023-01-20T22:34:46.888Z,-0.20
2023-01-20T22:37:14.620Z,-0.20
2023-01-20T22:39:42.451Z,-0.10
2023-01-20T22:42:10.173Z,0.00
2023-01-20T22:44:38.017Z,-0.10
2023-01-20T22:47:09.725Z,-0.10
2023-01-20T22:49:37.540Z,-0.10
2023-01-20T22:52:05.516Z,-0.20
2023-01-20T22:54:33.229Z,-0.10
2023-01-20T22:57:00.947Z,-0.20
2023-01-20T22:59:28.793Z,-0.20
2023-01-20T23:01:56.546Z,-0.20
2023-01-20T23:04:24.481Z,-0.10
2023-01-20T23:06:52.202Z,0.00
2023-01-20T23:09:20.158Z,0.00
2023-01-20T23:11:49.322Z,0.00
2023-01-20T23:14:17.051Z,0.00
2023-01-20T23:16:44.953Z,0.00
2023-01-20T23:19:12.741Z,0.00
2023-01-20T23:21:40.458Z,0.00
2023-01-20T23:24:09.548Z,0.00
2023-01-20T23:26:37.455Z,0.00
2023-01-20T23:29:05.323Z,-0.10
2023-01-20T23:31:35.307Z,0.00
2023-01-20T23:34:03.400Z,-0.10
2023-01-20T23:36:31.227Z,0.00
2023-01-20T23:38:58.952Z,0.00
2023-01-20T23:41:26.685Z,0.00
2023-01-20T23:43:54.393Z,0.10
2023-01-20T23:46:22.251Z,0.10
2023-01-20T23:48:49.962Z,0.10
2023-01-20T23:51:18.201Z,0.10
2023-01-20T23:53:46.129Z,0.10
2023-01-20T23:56:20.225Z,0.00
2023-01-20T23:58:47.924Z,0.00
